Time;durP1;ratioP1;P1;durP2;ratioP2;P2;SDS_P1;SDS_P2;PMS_P1;PMS_P2;Temp;Humidity;BMP_temperature;BMP_pressure;BME280_temperature;BME280_humidity;BME280_pressure;Samples;Min_cycle;Max_cycle;Signal;HPM_P1;HPM_P2
2021/06/07 00:01:57;;;;;;;8.63;4.15;;;11.90;99.90;;;;;;6155013;23;20017;-80
2021/06/07 00:04:26;;;;;;;7.93;3.70;;;11.80;99.90;;;;;;6180851;23;20016;-81
2021/06/07 00:06:53;;;;;;;8.27;3.78;;;11.80;99.90;;;;;;6177759;23;20088;-80
2021/06/07 00:09:19;;;;;;;6.75;3.30;;;11.80;99.90;;;;;;6152988;23;20100;-81
2021/06/07 00:11:51;;;;;;;9.50;3.90;;;11.80;99.90;;;;;;6154856;23;20087;-80
2021/06/07 00:14:19;;;;;;;6.65;3.92;;;11.80;99.90;;;;;;6190585;23;20105;-80
2021/06/07 00:16:45;;;;;;;6.78;3.65;;;11.70;99.90;;;;;;6153149;23;20017;-81
2021/06/07 00:19:14;;;;;;;6.07;3.65;;;11.70;99.90;;;;;;6188969;23;20019;-80
2021/06/07 00:21:40;;;;;;;8.35;3.90;;;11.60;99.90;;;;;;6178523;23;20017;-81
2021/06/07 00:24:07;;;;;;;6.95;4.03;;;11.50;99.90;;;;;;6190066;23;20337;-80
2021/06/07 00:26:33;;;;;;;5.85;3.58;;;11.40;99.90;;;;;;6155067;23;20092;-80
2021/06/07 00:28:59;;;;;;;5.40;4.20;;;11.40;99.90;;;;;;6176382;23;20037;-81
2021/06/07 00:31:25;;;;;;;6.03;4.13;;;11.30;99.90;;;;;;6194463;23;20016;-80
2021/06/07 00:33:52;;;;;;;11.05;4.30;;;11.30;99.90;;;;;;6159838;23;20033;-81
2021/06/07 00:36:21;;;;;;;10.73;4.68;;;11.30;99.90;;;;;;6159865;23;20009;-80
2021/06/07 00:38:48;;;;;;;6.85;4.53;;;11.20;99.90;;;;;;6184148;23;20885;-80
2021/06/07 00:41:15;;;;;;;15.27;4.88;;;11.20;99.90;;;;;;6184911;23;20024;-81
2021/06/07 00:43:41;;;;;;;9.50;5.03;;;11.10;99.90;;;;;;6202678;23;20068;-81
2021/06/07 00:46:08;;;;;;;11.40;4.68;;;11.10;99.90;;;;;;6202276;23;20013;-80
2021/06/07 00:48:34;;;;;;;12.38;4.88;;;11.10;99.90;;;;;;6153550;23;20469;-80
2021/06/07 00:51:08;;;;;;;11.32;4.65;;;11.00;99.90;;;;;;6153184;23;20479;-80
2021/06/07 00:53:34;;;;;;;10.63;4.63;;;11.00;99.90;;;;;;6152929;23;20017;-81
2021/06/07 00:56:03;;;;;;;9.30;4.53;;;11.00;99.90;;;;;;6178798;23;20012;-81
2021/06/07 00:58:36;;;;;;;11.27;4.20;;;10.80;99.90;;;;;;6152817;23;20020;-81
2021/06/07 01:01:04;;;;;;;6.05;4.60;;;10.90;99.90;;;;;;6154163;23;20024;-81
2021/06/07 01:03:30;;;;;;;7.28;5.00;;;10.90;99.90;;;;;;6183411;23;20067;-80
2021/06/07 01:05:57;;;;;;;8.43;4.70;;;10.90;99.90;;;;;;6153922;23;20418;-81
2021/06/07 01:08:24;;;;;;;9.80;5.15;;;10.90;99.90;;;;;;6189129;23;20017;-81
2021/06/07 01:10:51;;;;;;;11.45;5.28;;;10.90;99.90;;;;;;6177267;23;20528;-80
2021/06/07 01:13:18;;;;;;;9.32;4.75;;;10.90;99.90;;;;;;6178736;23;20017;-80
2021/06/07 01:15:46;;;;;;;9.80;5.13;;;10.90;99.90;;;;;;6190783;23;20048;-78
2021/06/07 01:18:13;;;;;;;7.70;5.15;;;10.80;99.90;;;;;;6151647;23;20024;-79
2021/06/07 01:20:39;;;;;;;7.05;4.88;;;10.80;99.90;;;;;;6190460;23;20065;-80
2021/06/07 01:23:05;;;;;;;7.88;5.00;;;10.80;99.90;;;;;;6152830;23;20017;-80
2021/06/07 01:25:35;;;;;;;6.93;4.75;;;10.80;99.90;;;;;;6154053;23;20922;-80
2021/06/07 01:28:02;;;;;;;11.48;4.68;;;10.70;99.90;;;;;;6177877;23;20017;-80
2021/06/07 01:30:30;;;;;;;5.53;4.60;;;10.70;99.90;;;;;;6189851;23;20053;-79
2021/06/07 01:32:57;;;;;;;10.35;5.03;;;10.60;99.90;;;;;;6176951;23;20024;-80
2021/06/07 01:35:25;;;;;;;10.43;4.85;;;10.60;99.90;;;;;;6178604;23;20311;-80
2021/06/07 01:37:53;;;;;;;15.63;6.72;;;10.60;99.90;;;;;;6177987;23;20396;-80
2021/06/07 01:40:30;;;;;;;14.27;5.97;;;10.60;99.90;;;;;;6180237;23;20096;-79
2021/06/07 01:42:56;;;;;;;10.40;4.97;;;10.60;99.90;;;;;;6190121;23;20018;-81
2021/06/07 01:45:24;;;;;;;12.68;5.63;;;10.60;99.90;;;;;;6188494;23;20009;-81
2021/06/07 01:47:51;;;;;;;7.05;4.90;;;10.60;99.90;;;;;;6177515;23;20066;-79
2021/06/07 01:50:17;;;;;;;9.15;5.32;;;10.60;99.90;;;;;;6177379;23;20025;-80
2021/06/07 01:52:47;;;;;;;5.88;5.10;;;10.60;99.90;;;;;;6152334;23;20020;-80
2021/06/07 01:55:18;;;;;;;8.40;5.45;;;10.50;99.90;;;;;;6178333;23;20453;-80
2021/06/07 01:57:45;;;;;;;10.50;4.93;;;10.60;99.90;;;;;;6188711;23;20371;-80
2021/06/07 02:00:21;;;;;;;5.82;4.75;;;10.50;99.90;;;;;;6187280;23;20021;-80
2021/06/07 02:02:48;;;;;;;7.68;4.53;;;10.50;99.90;;;;;;6185541;23;20446;-81
2021/06/07 02:05:24;;;;;;;12.25;4.75;;;10.40;99.90;;;;;;6128094;23;20009;-80
2021/06/07 02:07:55;;;;;;;5.22;4.38;;;10.30;99.90;;;;;;6152588;23;20550;-80
2021/06/07 02:10:24;;;;;;;7.22;4.72;;;10.40;99.90;;;;;;6176926;23;20768;-80
2021/06/07 02:12:50;;;;;;;9.65;5.13;;;10.30;99.90;;;;;;6128777;23;20024;-81
2021/06/07 02:15:16;;;;;;;8.20;5.40;;;10.30;99.90;;;;;;6153422;23;20204;-80
2021/06/07 02:17:42;;;;;;;9.68;5.45;;;10.30;99.90;;;;;;6164039;23;20013;-80
2021/06/07 02:20:12;;;;;;;8.50;5.30;;;10.30;99.90;;;;;;6153852;23;20017;-80
2021/06/07 02:22:40;;;;;;;8.50;5.25;;;10.30;99.90;;;;;;6126913;23;20013;-80
2021/06/07 02:25:06;;;;;;;5.65;5.10;;;10.30;99.90;;;;;;6162529;23;20227;-80
2021/06/07 02:27:33;;;;;;;10.20;4.45;;;10.20;99.90;;;;;;6151888;23;20012;-80
2021/06/07 02:30:00;;;;;;;5.30;4.25;;;10.20;99.90;;;;;;6163751;23;20013;-80
2021/06/07 02:32:26;;;;;;;6.28;4.30;;;10.20;99.90;;;;;;6128284;23;20087;-81
2021/06/07 02:34:52;;;;;;;5.45;4.78;;;10.20;99.90;;;;;;6153826;23;20021;-81
2021/06/07 02:37:18;;;;;;;6.05;4.70;;;10.10;99.90;;;;;;6161680;23;20009;-80
2021/06/07 02:39:44;;;;;;;21.65;5.20;;;10.10;99.90;;;;;;6127511;23;20524;-80
2021/06/07 02:42:11;;;;;;;5.82;5.30;;;10.00;99.90;;;;;;6163521;23;20013;-79
2021/06/07 02:44:39;;;;;;;6.38;5.28;;;10.10;99.90;;;;;;6181712;23;20445;-80
2021/06/07 02:47:05;;;;;;;9.70;4.97;;;9.90;99.90;;;;;;6156742;23;20037;-81
2021/06/07 02:49:31;;;;;;;6.35;4.85;;;9.90;99.90;;;;;;6127635;23;20071;-80
2021/06/07 02:51:57;;;;;;;9.68;5.40;;;9.90;99.90;;;;;;6153148;23;20017;-80
2021/06/07 02:54:23;;;;;;;7.60;4.80;;;9.90;99.90;;;;;;6128924;23;20119;-80
2021/06/07 02:56:49;;;;;;;8.02;5.28;;;9.80;99.90;;;;;;6157207;23;20021;-81
2021/06/07 02:59:15;;;;;;;5.93;5.32;;;9.80;99.90;;;;;;6162271;23;20059;-80
2021/06/07 03:01:41;;;;;;;16.70;5.35;;;9.80;99.90;;;;;;6128853;23;20009;-81
2021/06/07 03:04:07;;;;;;;8.88;6.63;;;9.90;99.90;;;;;;6129296;23;20395;-80
2021/06/07 03:06:33;;;;;;;10.95;7.25;;;9.90;99.90;;;;;;6126721;23;20055;-80
2021/06/07 03:08:59;;;;;;;10.00;7.10;;;9.90;99.90;;;;;;6126889;23;20017;-80
2021/06/07 03:11:25;;;;;;;10.65;6.78;;;9.90;99.90;;;;;;6123622;23;20022;-81
2021/06/07 03:13:51;;;;;;;7.90;6.22;;;10.00;99.90;;;;;;6160525;23;20009;-81
2021/06/07 03:16:17;;;;;;;10.95;6.28;;;10.00;99.90;;;;;;6184362;23;20048;-81
2021/06/07 03:18:43;;;;;;;9.90;5.90;;;10.00;99.90;;;;;;6149102;23;20093;-80
2021/06/07 03:21:10;;;;;;;6.50;5.70;;;10.00;99.90;;;;;;6125229;23;20021;-80
2021/06/07 03:23:38;;;;;;;6.47;5.50;;;10.00;99.90;;;;;;6150230;23;20013;-80
2021/06/07 03:26:05;;;;;;;6.47;5.45;;;10.00;99.90;;;;;;6174819;23;20010;-81
2021/06/07 03:28:32;;;;;;;8.13;5.32;;;10.00;99.90;;;;;;6175658;23;20084;-81
2021/06/07 03:30:58;;;;;;;7.28;5.65;;;9.90;99.90;;;;;;6175540;23;20022;-80
2021/06/07 03:33:24;;;;;;;8.25;5.28;;;9.90;99.90;;;;;;6151486;23;20457;-81
2021/06/07 03:35:53;;;;;;;5.85;5.30;;;9.90;99.90;;;;;;6149632;23;20842;-81
2021/06/07 03:38:19;;;;;;;7.40;5.60;;;9.90;99.90;;;;;;6148268;23;20045;-81
2021/06/07 03:40:48;;;;;;;8.15;5.55;;;9.90;99.90;;;;;;6174485;23;20021;-80
2021/06/07 03:43:16;;;;;;;7.60;5.45;;;9.90;99.90;;;;;;6150010;23;20854;-79
2021/06/07 03:45:42;;;;;;;7.78;5.15;;;10.00;99.90;;;;;;6161088;23;20052;-81
2021/06/07 03:48:08;;;;;;;11.02;5.13;;;9.90;99.90;;;;;;6148043;23;20013;-80
2021/06/07 03:50:37;;;;;;;7.38;5.38;;;9.90;99.90;;;;;;6150804;23;20018;-80
2021/06/07 03:53:04;;;;;;;5.65;5.03;;;9.90;99.90;;;;;;6183846;23;20068;-80
2021/06/07 03:55:31;;;;;;;9.25;5.30;;;10.00;99.90;;;;;;6174848;23;20009;-80
2021/06/07 03:57:58;;;;;;;6.88;5.43;;;10.00;99.90;;;;;;6184534;23;20096;-81
2021/06/07 04:00:28;;;;;;;11.10;5.60;;;10.10;99.90;;;;;;6150311;23;20041;-81
2021/06/07 04:02:55;;;;;;;10.88;5.82;;;10.10;99.90;;;;;;6148494;23;20097;-80
2021/06/07 04:05:21;;;;;;;6.88;5.47;;;10.10;99.90;;;;;;6150810;23;20017;-80
2021/06/07 04:07:48;;;;;;;13.10;5.90;;;10.20;99.90;;;;;;6150205;23;20018;-81
2021/06/07 04:10:18;;;;;;;13.40;5.88;;;10.40;99.90;;;;;;6162993;23;20017;-80
2021/06/07 04:12:46;;;;;;;13.98;7.00;;;10.40;99.90;;;;;;6178618;23;20037;-80
2021/06/07 04:15:17;;;;;;;8.65;5.97;;;10.50;99.90;;;;;;6133170;23;20464;-81
2021/06/07 04:17:44;;;;;;;7.68;5.65;;;10.50;99.90;;;;;;6132751;23;20013;-80
2021/06/07 04:20:12;;;;;;;12.65;6.38;;;10.60;99.90;;;;;;6132824;23;20095;-80
2021/06/07 04:22:38;;;;;;;10.27;6.88;;;10.70;99.90;;;;;;6183498;23;20016;-80
2021/06/07 04:25:05;;;;;;;11.23;6.93;;;10.80;99.90;;;;;;6163876;23;20013;-80
2021/06/07 04:27:32;;;;;;;12.77;8.35;;;11.40;99.90;;;;;;6153127;23;20009;-80
2021/06/07 04:29:57;;;;;;;9.65;6.57;;;12.00;99.90;;;;;;6129702;23;20013;-80
2021/06/07 04:32:23;;;;;;;11.48;6.78;;;12.80;99.90;;;;;;6164085;23;20016;-80
2021/06/07 04:34:49;;;;;;;11.05;6.40;;;14.00;99.90;;;;;;6163543;23;20096;-81
2021/06/07 04:37:15;;;;;;;10.73;5.43;;;14.90;99.90;;;;;;6189984;23;20017;-81
2021/06/07 04:39:41;;;;;;;10.68;5.85;;;15.40;99.90;;;;;;6131210;23;20438;-81
2021/06/07 04:42:07;;;;;;;9.00;6.00;;;16.00;99.90;;;;;;6130710;23;20067;-81
2021/06/07 04:44:33;;;;;;;8.65;6.35;;;16.30;99.90;;;;;;6181205;23;20441;-81
2021/06/07 04:46:59;;;;;;;9.60;5.57;;;16.60;99.90;;;;;;6189890;23;20568;-81
2021/06/07 04:49:25;;;;;;;10.88;6.00;;;16.80;99.90;;;;;;6165358;23;20147;-81
2021/06/07 04:51:52;;;;;;;13.23;6.53;;;16.90;99.90;;;;;;6164272;23;20052;-81
2021/06/07 04:54:17;;;;;;;10.13;5.75;;;16.80;99.90;;;;;;6191843;23;20107;-81
2021/06/07 04:56:43;;;;;;;14.50;6.30;;;17.20;99.90;;;;;;6186660;23;20365;-81
2021/06/07 04:59:09;;;;;;;9.05;6.93;;;16.30;99.90;;;;;;6157354;23;20037;-80
2021/06/07 05:01:35;;;;;;;15.63;6.95;;;15.60;99.90;;;;;;6157092;23;20013;-81
2021/06/07 05:04:01;;;;;;;9.70;7.20;;;15.20;99.90;;;;;;6155988;23;20338;-81
2021/06/07 05:06:26;;;;;;;14.02;7.28;;;14.70;99.90;;;;;;6193274;23;20392;-81
2021/06/07 05:08:52;;;;;;;12.57;6.95;;;14.30;99.90;;;;;;6178662;23;20017;-81
2021/06/07 05:11:18;;;;;;;14.35;7.70;;;14.10;99.90;;;;;;6184929;23;20395;-81
2021/06/07 05:13:44;;;;;;;11.00;7.18;;;13.90;99.90;;;;;;6151072;23;20104;-81
2021/06/07 05:16:10;;;;;;;11.52;7.53;;;13.80;99.90;;;;;;6124234;23;20056;-81
2021/06/07 05:18:37;;;;;;;15.32;7.80;;;13.70;99.90;;;;;;6183405;23;20116;-81
2021/06/07 05:21:04;;;;;;;15.38;7.65;;;13.60;99.90;;;;;;6152254;23;20092;-82
2021/06/07 05:23:30;;;;;;;12.77;7.32;;;13.50;99.90;;;;;;6159204;23;20083;-81
2021/06/07 05:25:57;;;;;;;13.82;7.25;;;13.60;99.90;;;;;;6160984;23;20009;-82
2021/06/07 05:28:24;;;;;;;9.10;4.13;;;13.70;99.90;;;;;;6152301;23;20104;-81
2021/06/07 05:30:51;;;;;;;10.40;7.00;;;13.70;99.90;;;;;;6187275;23;20025;-80
2021/06/07 05:33:19;;;;;;;8.73;6.20;;;13.80;99.90;;;;;;6151170;23;20525;-82
2021/06/07 05:35:47;;;;;;;7.47;6.22;;;13.80;99.90;;;;;;6185896;23;20013;-82
2021/06/07 05:38:14;;;;;;;15.75;6.85;;;13.80;99.90;;;;;;6176350;23;20118;-81
2021/06/07 05:40:41;;;;;;;8.57;6.32;;;13.80;99.90;;;;;;6154415;23;20109;-79
2021/06/07 05:43:07;;;;;;;10.32;6.18;;;13.80;99.90;;;;;;6154388;23;20096;-81
2021/06/07 05:45:34;;;;;;;10.10;5.88;;;13.80;99.90;;;;;;6177790;23;20014;-79
2021/06/07 05:48:00;;;;;;;7.63;5.57;;;13.80;99.90;;;;;;6177683;23;20013;-79
2021/06/07 05:50:29;;;;;;;8.43;6.00;;;13.80;99.90;;;;;;6177751;23;20013;-80
2021/06/07 05:52:55;;;;;;;11.02;6.18;;;13.90;99.90;;;;;;6177457;23;20009;-79
2021/06/07 05:55:30;;;;;;;8.00;5.72;;;13.90;99.90;;;;;;6154787;23;20017;-79
2021/06/07 05:58:00;;;;;;;8.48;5.95;;;13.90;99.90;;;;;;6178715;23;20089;-79
2021/06/07 06:00:28;;;;;;;8.38;5.70;;;14.00;99.90;;;;;;6162247;23;20021;-78
2021/06/07 06:02:54;;;;;;;9.90;5.85;;;14.00;99.90;;;;;;6126124;23;20454;-78
2021/06/07 06:05:20;;;;;;;12.15;5.80;;;14.10;99.90;;;;;;6161135;23;20041;-76
2021/06/07 06:07:47;;;;;;;9.68;5.47;;;14.10;99.90;;;;;;6174594;23;20037;-79
2021/06/07 06:10:14;;;;;;;6.88;5.18;;;14.20;99.90;;;;;;6150275;23;20049;-77
2021/06/07 06:12:46;;;;;;;9.32;5.38;;;14.40;99.90;;;;;;6170559;23;20095;-77
2021/06/07 06:15:13;;;;;;;6.28;4.70;;;14.40;99.90;;;;;;6157166;23;20331;-78
2021/06/07 06:17:39;;;;;;;8.18;4.53;;;14.50;99.90;;;;;;6166128;23;20013;-78
2021/06/07 06:20:07;;;;;;;5.93;4.45;;;14.60;99.90;;;;;;6159257;23;20021;-78
2021/06/07 06:22:33;;;;;;;5.78;3.85;;;14.60;99.90;;;;;;6160616;23;20009;-80
2021/06/07 06:24:59;;;;;;;8.43;4.38;;;14.60;99.90;;;;;;6158467;23;20040;-80
2021/06/07 06:27:25;;;;;;;8.20;4.55;;;14.70;99.90;;;;;;6185790;23;20473;-78
2021/06/07 06:29:51;;;;;;;6.28;4.10;;;14.80;99.90;;;;;;6157241;23;20501;-79
2021/06/07 06:32:16;;;;;;;5.78;4.10;;;14.80;99.90;;;;;;6156981;23;20460;-79
2021/06/07 06:34:42;;;;;;;7.00;4.65;;;14.90;99.90;;;;;;6195005;23;20091;-80
2021/06/07 06:37:09;;;;;;;7.18;5.20;;;14.90;99.90;;;;;;6157983;23;20070;-79
2021/06/07 06:39:35;;;;;;;8.80;4.63;;;15.00;99.90;;;;;;6156640;23;20017;-79
2021/06/07 06:42:03;;;;;;;8.55;3.88;;;15.10;99.90;;;;;;6156069;23;20381;-79
2021/06/07 06:44:29;;;;;;;7.13;4.20;;;15.10;99.90;;;;;;6192824;23;20009;-79
2021/06/07 06:46:55;;;;;;;6.20;4.18;;;15.20;99.90;;;;;;6131045;23;20067;-80
2021/06/07 06:49:21;;;;;;;8.38;4.63;;;15.30;99.90;;;;;;6156326;23;20013;-78
2021/06/07 06:51:46;;;;;;;7.72;4.60;;;15.30;99.90;;;;;;6182191;23;20071;-79
2021/06/07 06:54:13;;;;;;;5.43;4.38;;;15.30;99.90;;;;;;6182678;23;20092;-79
2021/06/07 06:56:39;;;;;;;7.32;3.85;;;15.40;99.90;;;;;;6155970;23;20385;-79
2021/06/07 06:59:05;;;;;;;6.38;4.10;;;15.40;99.90;;;;;;6182584;23;20337;-79
2021/06/07 07:01:31;;;;;;;8.18;4.00;;;15.50;99.90;;;;;;6130788;23;20322;-79
2021/06/07 07:03:57;;;;;;;4.75;2.88;;;15.50;99.90;;;;;;6155656;23;20016;-79
2021/06/07 07:06:26;;;;;;;5.53;3.35;;;15.60;99.90;;;;;;6182152;23;20299;-79
2021/06/07 07:08:52;;;;;;;8.35;3.33;;;15.80;99.90;;;;;;6192418;23;20009;-79
2021/06/07 07:11:19;;;;;;;6.35;3.80;;;15.70;99.90;;;;;;6155601;23;20017;-79
2021/06/07 07:13:46;;;;;;;5.03;2.95;;;15.70;99.90;;;;;;6126911;23;20037;-79
2021/06/07 07:16:15;;;;;;;8.77;3.22;;;15.70;99.90;;;;;;6184094;23;20017;-79
2021/06/07 07:18:41;;;;;;;8.02;2.97;;;15.80;99.90;;;;;;6162480;23;20434;-79
2021/06/07 07:21:08;;;;;;;8.73;2.90;;;15.90;99.90;;;;;;6150716;23;20033;-80
2021/06/07 07:23:34;;;;;;;3.70;2.95;;;16.00;99.90;;;;;;6175397;23;20045;-79
2021/06/07 07:26:01;;;;;;;3.33;2.63;;;16.00;99.90;;;;;;6150053;23;20016;-80
2021/06/07 07:28:27;;;;;;;6.35;2.70;;;16.10;99.90;;;;;;6151998;23;20021;-80
2021/06/07 07:30:53;;;;;;;4.57;3.30;;;16.10;99.90;;;;;;6162342;23;20147;-80
2021/06/07 07:33:19;;;;;;;5.70;2.85;;;16.10;99.90;;;;;;6153010;23;20379;-80
2021/06/07 07:35:45;;;;;;;6.18;3.05;;;16.20;99.90;;;;;;6153776;23;20362;-80
2021/06/07 07:38:11;;;;;;;4.82;3.15;;;16.40;99.90;;;;;;6175453;23;20089;-80
2021/06/07 07:40:39;;;;;;;7.32;3.10;;;16.40;99.90;;;;;;6176687;23;20036;-80
2021/06/07 07:43:05;;;;;;;7.97;3.53;;;16.40;99.90;;;;;;6176020;23;20371;-80
2021/06/07 07:45:31;;;;;;;6.40;3.17;;;16.50;99.90;;;;;;6163578;23;20067;-80
2021/06/07 07:47:59;;;;;;;9.52;3.10;;;16.50;99.90;;;;;;6153876;23;20041;-80
2021/06/07 07:50:27;;;;;;;5.10;2.95;;;16.60;99.90;;;;;;6177000;23;20342;-81
2021/06/07 07:52:53;;;;;;;7.00;3.00;;;16.70;99.90;;;;;;6164002;23;20010;-80
2021/06/07 07:55:23;;;;;;;6.30;2.67;;;16.80;99.90;;;;;;6177438;23;20023;-80
2021/06/07 07:57:50;;;;;;;3.33;2.67;;;16.80;99.90;;;;;;6151470;23;20028;-80
2021/06/07 08:00:21;;;;;;;8.00;2.92;;;16.80;99.90;;;;;;6153800;23;20045;-80
2021/06/07 08:02:47;;;;;;;5.28;2.85;;;17.00;99.90;;;;;;6186471;23;20028;-80
2021/06/07 08:05:13;;;;;;;4.63;2.85;;;17.00;99.90;;;;;;6152961;23;20447;-80
2021/06/07 08:07:40;;;;;;;3.50;2.35;;;17.10;99.90;;;;;;6164545;23;20049;-80
2021/06/07 08:10:07;;;;;;;5.70;2.55;;;17.10;99.90;;;;;;6177879;23;20071;-80
2021/06/07 08:12:35;;;;;;;5.72;2.70;;;17.10;99.90;;;;;;6164167;23;20019;-80
2021/06/07 08:15:03;;;;;;;6.40;2.42;;;17.10;99.90;;;;;;6194480;23;20025;-80
2021/06/07 08:17:29;;;;;;;6.97;2.67;;;17.20;99.90;;;;;;6194356;23;20013;-80
2021/06/07 08:19:54;;;;;;;4.93;2.63;;;17.20;99.90;;;;;;6157902;23;20028;-80
2021/06/07 08:22:20;;;;;;;4.15;2.28;;;17.30;99.90;;;;;;6183890;23;20016;-78
2021/06/07 08:24:46;;;;;;;5.28;2.30;;;17.30;99.90;;;;;;6157037;23;20017;-78
2021/06/07 08:27:12;;;;;;;5.95;2.55;;;17.40;99.90;;;;;;6156820;23;20087;-80
2021/06/07 08:29:39;;;;;;;4.30;2.33;;;17.40;99.90;;;;;;6133373;23;20441;-79
2021/06/07 08:32:06;;;;;;;6.40;2.20;;;17.50;99.90;;;;;;6194116;23;20028;-79
2021/06/07 08:34:33;;;;;;;5.18;2.28;;;17.50;99.90;;;;;;6182563;23;20027;-78
2021/06/07 08:36:59;;;;;;;8.02;2.53;;;17.70;99.90;;;;;;6157779;23;20023;-78
2021/06/07 08:39:25;;;;;;;7.65;2.63;;;17.60;99.90;;;;;;6157272;23;20024;-79
2021/06/07 08:41:51;;;;;;;6.95;2.40;;;17.80;99.90;;;;;;6133779;23;20013;-78
2021/06/07 08:44:17;;;;;;;5.15;2.50;;;17.80;99.90;;;;;;6196170;23;20048;-78
2021/06/07 08:46:45;;;;;;;7.40;2.70;;;17.90;99.90;;;;;;6134018;23;20013;-78
2021/06/07 08:49:11;;;;;;;7.18;2.13;;;17.90;99.90;;;;;;6157935;23;20055;-78
2021/06/07 08:51:37;;;;;;;4.97;1.95;;;17.90;99.90;;;;;;6158225;23;20449;-79
2021/06/07 08:54:03;;;;;;;6.60;1.92;;;17.90;99.90;;;;;;6156090;23;20013;-77
2021/06/07 08:56:29;;;;;;;2.88;2.00;;;17.90;99.90;;;;;;6167168;23;20009;-78
2021/06/07 08:58:54;;;;;;;5.25;2.28;;;18.10;99.90;;;;;;6156835;23;20043;-78
2021/06/07 09:01:20;;;;;;;6.38;2.53;;;18.10;99.90;;;;;;6156586;23;20020;-78
2021/06/07 09:03:46;;;;;;;5.47;2.00;;;18.10;99.90;;;;;;6183735;23;20017;-79
2021/06/07 09:06:13;;;;;;;7.30;2.13;;;18.30;99.90;;;;;;6156619;23;20024;-78
2021/06/07 09:08:40;;;;;;;8.25;2.50;;;18.30;99.90;;;;;;6192657;23;20460;-78
2021/06/07 09:11:12;;;;;;;6.10;2.20;;;18.30;99.90;;;;;;6182913;23;20013;-78
2021/06/07 09:13:38;;;;;;;4.20;1.95;;;18.30;99.90;;;;;;6151311;23;20341;-79
2021/06/07 09:16:06;;;;;;;5.35;2.25;;;18.30;99.90;;;;;;6127546;23;20017;-78
2021/06/07 09:18:48;;;;;;;5.55;2.53;;;18.50;99.90;;;;;;6178148;23;20108;-78
2021/06/07 09:21:19;;;;;;;7.93;2.35;;;18.70;99.90;;;;;;6178329;23;20037;-80
2021/06/07 09:24:02;;;;;;;5.43;2.15;;;18.60;99.90;;;;;;6153153;23;20085;-80
2021/06/07 09:26:32;;;;;;;4.38;2.30;;;18.70;99.90;;;;;;6149560;23;20009;-82
2021/06/07 09:29:17;;;;;;;2.90;1.80;;;18.80;99.90;;;;;;6154246;23;20097;-79
2021/06/07 09:31:44;;;;;;;;;;;18.80;99.90;;;;;;6163662;23;20092;-80
2021/06/07 09:34:12;;;;;;;5.40;2.17;;;18.70;99.90;;;;;;6153605;23;19967;-84
2021/06/07 09:36:37;;;;;;;4.65;2.05;;;18.60;99.90;;;;;;6176891;23;20013;-79
2021/06/07 09:39:07;;;;;;;3.60;1.85;;;18.70;99.90;;;;;;6163311;23;20359;-80
2021/06/07 09:41:55;;;;;;;5.13;1.73;;;18.70;99.90;;;;;;6177569;23;20040;-81
2021/06/07 09:44:33;;;;;;;3.58;1.88;;;19.00;99.90;;;;;;6177177;23;20021;-81
2021/06/07 09:47:20;;;;;;;5.53;2.20;;;19.10;99.90;;;;;;6151992;23;20171;-82
2021/06/07 09:50:04;;;;;;;5.00;2.25;;;19.00;99.90;;;;;;6153604;23;20013;-82
2021/06/07 09:52:43;;;;;;;5.93;2.15;;;19.10;99.90;;;;;;6175763;23;20022;-82
2021/06/07 09:55:17;;;;;;;5.05;2.30;;;19.30;99.90;;;;;;6187202;23;20335;-78
2021/06/07 09:57:55;;;;;;;5.45;2.83;;;19.30;99.90;;;;;;6163516;23;20025;-78
2021/06/07 10:00:43;;;;;;;5.20;2.53;;;19.40;99.90;;;;;;6164038;23;20018;-75
2021/06/07 10:03:19;;;;;;;4.90;2.97;;;19.40;99.90;;;;;;6171735;23;20009;-78
2021/06/07 10:05:47;;;;;;;6.78;3.15;;;19.40;99.90;;;;;;6171680;23;20017;-77
2021/06/07 10:08:12;;;;;;;4.55;2.65;;;19.40;99.90;;;;;;6169338;23;20009;-78
2021/06/07 10:10:40;;;;;;;8.80;2.28;;;19.70;99.90;;;;;;6192893;23;20074;-77
2021/06/07 10:13:08;;;;;;;4.82;2.58;;;19.60;99.90;;;;;;6193343;23;20025;-80
2021/06/07 10:15:40;;;;;;;5.68;2.72;;;19.50;99.90;;;;;;6187344;23;20014;-78
2021/06/07 10:18:10;;;;;;;4.00;2.63;;;19.60;99.90;;;;;;6153718;23;20034;-78
2021/06/07 10:20:46;;;;;;;5.22;2.50;;;19.50;99.90;;;;;;6154324;23;20013;-79
2021/06/07 10:23:12;;;;;;;6.45;2.90;;;19.70;99.90;;;;;;6150933;23;20014;-77
2021/06/07 10:25:38;;;;;;;5.05;2.60;;;19.70;99.90;;;;;;6154573;23;20047;-80
2021/06/07 10:28:04;;;;;;;4.82;2.50;;;19.90;99.90;;;;;;6158202;23;20013;-78
2021/06/07 10:30:36;;;;;;;4.32;2.53;;;20.00;99.90;;;;;;6176818;23;20021;-78
2021/06/07 10:33:26;;;;;;;7.15;2.90;;;20.10;99.90;;;;;;6164071;23;20020;-77
2021/06/07 10:35:52;;;;;;;7.03;2.85;;;20.10;99.90;;;;;;6162583;23;20014;-78
2021/06/07 10:38:29;;;;;;;6.38;2.78;;;20.10;99.90;;;;;;6163688;23;20013;-79
2021/06/07 10:41:20;;;;;;;5.55;2.47;;;20.20;99.90;;;;;;6128067;23;20019;-78
2021/06/07 10:43:52;;;;;;;6.15;2.70;;;20.30;99.90;;;;;;6151968;23;20029;-79
2021/06/07 10:46:31;;;;;;;4.68;3.10;;;20.20;99.90;;;;;;6152771;23;20017;-78
2021/06/07 10:48:58;;;;;;;7.75;3.05;;;19.90;99.90;;;;;;6163882;23;20039;-78
2021/06/07 10:51:30;;;;;;;5.85;3.00;;;19.90;99.90;;;;;;6151935;23;20014;-80
2021/06/07 10:54:31;;;;;;;5.10;3.10;;;20.20;99.90;;;;;;6152088;23;20320;-78
2021/06/07 10:57:22;;;;;;;5.07;2.88;;;20.20;99.90;;;;;;6176144;23;20088;-79
2021/06/07 10:59:50;;;;;;;6.20;3.10;;;20.30;99.90;;;;;;6164533;23;20028;-79
2021/06/07 11:02:17;;;;;;;6.60;3.22;;;20.30;99.90;;;;;;6154015;23;20017;-77
2021/06/07 11:04:43;;;;;;;7.63;3.67;;;20.40;99.90;;;;;;6176147;23;20442;-80
2021/06/07 11:07:17;;;;;;;6.57;2.40;;;20.30;99.90;;;;;;6163212;23;20013;-77
2021/06/07 11:10:19;;;;;;;4.30;1.80;;;20.40;99.90;;;;;;6154345;23;20014;-79
2021/06/07 11:12:49;;;;;;;7.03;2.30;;;20.60;99.30;;;;;;6145576;23;20041;-78
2021/06/07 11:15:20;;;;;;;5.25;2.33;;;20.80;99.70;;;;;;6152837;23;20044;-79
2021/06/07 11:17:47;;;;;;;5.00;2.15;;;20.60;99.30;;;;;;6176241;23;20037;-80
2021/06/07 11:20:28;;;;;;;4.60;1.67;;;20.70;99.40;;;;;;6176293;23;20021;-78
2021/06/07 11:23:13;;;;;;;6.40;2.00;;;20.50;99.60;;;;;;6151374;23;20024;-79
2021/06/07 11:25:53;;;;;;;3.57;2.17;;;21.00;99.30;;;;;;6177090;23;20013;-77
2021/06/07 11:28:29;;;;;;;4.03;1.75;;;21.10;99.10;;;;;;6152869;23;20647;-77
2021/06/07 11:30:56;;;;;;;5.53;1.85;;;21.20;98.30;;;;;;6162525;23;20105;-79
2021/06/07 11:33:22;;;;;;;5.97;1.95;;;21.20;98.50;;;;;;6176286;23;20021;-78
2021/06/07 11:35:48;;;;;;;4.70;1.98;;;21.40;98.40;;;;;;6152943;23;20014;-78
2021/06/07 11:38:35;;;;;;;5.07;1.90;;;21.40;98.10;;;;;;6178355;23;20411;-80
2021/06/07 11:41:04;;;;;;;3.95;1.77;;;21.50;98.20;;;;;;6188384;23;20017;-81
2021/06/07 11:43:56;;;;;;;4.82;1.95;;;21.50;98.50;;;;;;6181520;23;20513;-77
2021/06/07 11:46:31;;;;;;;4.70;2.13;;;21.80;97.40;;;;;;6150747;23;20018;-77
2021/06/07 11:49:07;;;;;;;5.63;2.10;;;21.50;97.60;;;;;;6152266;23;20485;-76
2021/06/07 11:51:35;;;;;;;5.45;2.13;;;21.50;98.40;;;;;;6165561;23;20014;-78
2021/06/07 11:54:27;;;;;;;5.03;2.10;;;21.40;98.40;;;;;;6164833;23;20018;-78
2021/06/07 11:56:55;;;;;;;3.72;2.13;;;21.40;98.00;;;;;;6152589;23;20013;-77
2021/06/07 11:59:22;;;;;;;5.70;2.25;;;21.60;98.70;;;;;;6153724;23;20033;-79
2021/06/07 12:01:48;;;;;;;7.15;2.08;;;22.10;98.60;;;;;;6175857;23;20367;-80
2021/06/07 12:04:29;;;;;;;7.57;2.20;;;22.10;97.20;;;;;;6153729;23;20100;-80
2021/06/07 12:07:03;;;;;;;4.28;2.38;;;22.20;97.70;;;;;;6150651;23;20294;-78
2021/06/07 12:09:30;;;;;;;7.10;2.20;;;22.10;98.20;;;;;;6155144;23;20076;-80
2021/06/07 12:11:57;;;;;;;4.32;2.58;;;22.20;98.40;;;;;;6164168;23;20013;-81
2021/06/07 12:14:31;;;;;;;5.97;2.55;;;22.40;98.20;;;;;;6182570;23;20357;-77
2021/06/07 12:17:17;;;;;;;7.43;2.30;;;22.40;97.30;;;;;;6157697;23;20100;-79
2021/06/07 12:19:55;;;;;;;5.30;2.20;;;22.60;97.90;;;;;;6157700;23;20013;-78
2021/06/07 12:22:26;;;;;;;4.05;1.90;;;22.30;96.90;;;;;;6157695;23;20021;-80
2021/06/07 12:25:17;;;;;;;3.30;1.90;;;22.30;97.50;;;;;;6193886;23;20013;-77
2021/06/07 12:30:30;;;;;;;4.43;2.30;;;22.70;96.60;;;;;;6183628;23;20013;-79
2021/06/07 12:32:57;;;;;;;4.03;2.53;;;22.60;97.10;;;;;;6193631;23;20041;-80
2021/06/07 12:35:24;;;;;;;4.60;2.17;;;22.80;97.20;;;;;;6157386;23;20410;-81
2021/06/07 12:38:03;;;;;;;4.55;2.03;;;22.80;97.20;;;;;;6181683;23;20025;-79
2021/06/07 12:40:40;;;;;;;2.97;1.98;;;23.00;97.20;;;;;;6193664;23;20086;-78
2021/06/07 12:43:06;;;;;;;4.80;2.38;;;22.90;97.10;;;;;;6157272;23;20024;-79
2021/06/07 12:45:43;;;;;;;3.08;1.80;;;22.90;96.10;;;;;;6158462;23;20021;-80
2021/06/07 12:48:19;;;;;;;4.22;2.05;;;23.20;96.20;;;;;;6158205;23;20430;-80
2021/06/07 12:50:52;;;;;;;6.05;2.72;;;23.20;96.50;;;;;;6169300;23;20394;-80
2021/06/07 12:53:21;;;;;;;5.57;2.25;;;23.00;97.20;;;;;;6157339;23;20093;-78
2021/06/07 12:55:48;;;;;;;4.38;2.10;;;22.90;96.50;;;;;;6157413;23;20013;-80
2021/06/07 12:58:17;;;;;;;5.22;2.03;;;23.00;96.70;;;;;;6189801;23;20009;-80